Pride Of Calais — GJLY — position and weather

sailwx.info

Track history (hours):
 
Tides and Currents Weather Stations Pressure Air Temp Water Temp Dewpoint Dewpoint Depression Visibility Wind Speed Wind Dir Waves Ship Positions

Pride Of Calais

Operator: P & O Ferries

Last reported at 2013-Nov-10 13:33 UTC. Time now 2017-Nov-22 07:22 UTC.
Position N 38°42' E 025°46'.
Warning: this ship's position is years out of date!

Length 170 m; draft 5.5 m.

Type: Cargo ship. MMSI: 232001710.

Date/timePositionNaut miles runAvg speedWind from/ knotsBaromVisibWave heightAir tempDewpointWater temp
2013-Nov-10 13:33N 38°42' E 025°46'25 8.1
2013-Nov-10 10:32N 39°06' E 025°49'22 5.2
2013-Nov-10 06:23N 38°45' E 025°48'2418.6
2013-Nov-10 05:06N 38°45' E 025°17'18 7.1
2013-Nov-10 02:33N 39°03' E 025°16'2117.8
2013-Nov-10 01:21N 39°01' E 025°43'27 4.0
2013-Nov-09 18:34N 39°03' E 025°08'4217.6
2013-Nov-09 16:12N 38°55' E 026°01'14 2.9
2013-Nov-09 11:33N 38°44' E 025°51'2217.6
2013-Nov-09 10:18N 38°40' E 025°24'1417.6
2013-Nov-09 09:29N 38°29' E 025°11'4916.4
2013-Nov-09 06:29N 37°49' E 024°35'1516.3
2013-Nov-09 05:33N 37°35' E 024°28'1413.7
2013-Nov-09 04:32N 37°24' E 024°16'1312.3
2013-Nov-09 03:31N 37°13' E 024°11'1212.5
2013-Nov-09 02:32N 37°01' E 024°07'1212.3
2013-Nov-09 01:33N 36°50' E 024°01'  
2013-Nov-03 16:28N 37°39' W 009°49'2412.4
2013-Nov-03 14:29N 38°02' W 009°56'34211.6
2013-Nov-02 09:09N 43°44' W 009°39'711.5
2013-Nov-02 08:32N 43°48' W 009°31'1411.1
2013-Nov-02 07:15N 43°57' W 009°15'811.1
2013-Nov-02 06:32N 44°02' W 009°06'1010.6
2013-Nov-02 05:33N 44°08' W 008°55'1110.8
2013-Nov-02 04:33N 44°15' W 008°43'  
Track history (hours):
 
Tides and Currents Weather Stations Pressure Air Temp Water Temp Dewpoint Dewpoint Depression Visibility Wind Speed Wind Dir Waves Ship Positions

Pride Of Calais

Operator: P & O Ferries

Last reported at 2013-Nov-10 13:33 UTC. Time now 2017-Nov-22 07:22 UTC.
Position N 38°42' E 025°46'.
Warning: this ship's position is years out of date!

Length 170 m; draft 5.5 m.

Type: Cargo ship. MMSI: 232001710.

Date/timePositionNaut miles runAvg speedWind from/ knotsBaromVisibWave heightAir tempDewpointWater temp
2013-Nov-10 13:33N 38°42' E 025°46'25 8.1
2013-Nov-10 10:32N 39°06' E 025°49'22 5.2
2013-Nov-10 06:23N 38°45' E 025°48'2418.6
2013-Nov-10 05:06N 38°45' E 025°17'18 7.1
2013-Nov-10 02:33N 39°03' E 025°16'2117.8
2013-Nov-10 01:21N 39°01' E 025°43'27 4.0
2013-Nov-09 18:34N 39°03' E 025°08'4217.6
2013-Nov-09 16:12N 38°55' E 026°01'14 2.9
2013-Nov-09 11:33N 38°44' E 025°51'2217.6
2013-Nov-09 10:18N 38°40' E 025°24'1417.6
2013-Nov-09 09:29N 38°29' E 025°11'4916.4
2013-Nov-09 06:29N 37°49' E 024°35'1516.3
2013-Nov-09 05:33N 37°35' E 024°28'1413.7
2013-Nov-09 04:32N 37°24' E 024°16'1312.3
2013-Nov-09 03:31N 37°13' E 024°11'1212.5
2013-Nov-09 02:32N 37°01' E 024°07'1212.3
2013-Nov-09 01:33N 36°50' E 024°01'  
2013-Nov-03 16:28N 37°39' W 009°49'2412.4
2013-Nov-03 14:29N 38°02' W 009°56'34211.6
2013-Nov-02 09:09N 43°44' W 009°39'711.5
2013-Nov-02 08:32N 43°48' W 009°31'1411.1
2013-Nov-02 07:15N 43°57' W 009°15'811.1
2013-Nov-02 06:32N 44°02' W 009°06'1010.6
2013-Nov-02 05:33N 44°08' W 008°55'1110.8
2013-Nov-02 04:33N 44°15' W 008°43'  

Dump ship's entire track history